createdAt,value
2022-11-28T00:00:18.827Z,22.92
2022-11-28T00:03:20.148Z,23.60
2022-11-28T00:06:21.943Z,23.30
2022-11-28T00:09:23.718Z,24.60
2022-11-28T00:12:24.578Z,23.83
2022-11-28T00:15:25.322Z,23.55
2022-11-28T00:18:27.278Z,22.80
2022-11-28T00:21:29.009Z,21.38
2022-11-28T00:24:30.178Z,20.00
2022-11-28T00:27:31.026Z,22.27
2022-11-28T00:30:31.758Z,21.70
2022-11-28T00:33:34.011Z,21.63
2022-11-28T00:36:35.385Z,21.80
2022-11-28T00:39:36.183Z,22.13
2022-11-28T00:42:36.971Z,21.60
2022-11-28T00:45:38.078Z,21.42
2022-11-28T00:48:39.271Z,22.25
2022-11-28T00:51:40.133Z,20.33
2022-11-28T00:54:41.205Z,21.38
2022-11-28T00:57:42.311Z,21.23
2022-11-28T01:00:43.129Z,20.17
2022-11-28T01:03:44.515Z,20.17
2022-11-28T01:06:49.718Z,22.45
2022-11-28T01:09:50.639Z,20.00
2022-11-28T01:12:51.894Z,19.88
2022-11-28T01:15:53.468Z,20.63
2022-11-28T01:18:54.646Z,21.10
2022-11-28T01:21:55.550Z,21.00
2022-11-28T01:24:56.278Z,22.00
2022-11-28T01:27:56.976Z,21.58
2022-11-28T01:31:02.469Z,21.58
2022-11-28T01:34:03.396Z,19.77
2022-11-28T01:37:04.160Z,20.30
2022-11-28T01:40:06.937Z,20.90
2022-11-28T01:43:10.679Z,22.42
2022-11-28T01:46:11.970Z,19.52
2022-11-28T01:49:31.885Z,20.10
2022-11-28T01:52:36.793Z,19.35
2022-11-28T01:55:53.031Z,21.52
2022-11-28T01:59:03.943Z,22.08
2022-11-28T02:02:13.344Z,23.45
2022-11-28T02:05:16.188Z,21.38
2022-11-28T02:08:17.411Z,22.00
2022-11-28T02:12:02.839Z,22.83
2022-11-28T02:15:36.429Z,22.73
2022-11-28T02:19:17.251Z,22.80
2022-11-28T02:22:31.868Z,22.15
2022-11-28T02:26:24.211Z,22.67
2022-11-28T02:30:03.873Z,21.92
2022-11-28T02:33:16.462Z,20.33
2022-11-28T02:36:36.519Z,22.58
2022-11-28T02:40:14.096Z,21.85
2022-11-28T02:43:38.105Z,22.52
2022-11-28T02:47:03.362Z,21.98
2022-11-28T02:50:34.099Z,24.30
2022-11-28T02:53:37.750Z,23.58
2022-11-28T02:56:38.970Z,23.70
2022-11-28T02:59:39.981Z,23.25
2022-11-28T03:02:43.683Z,22.70
2022-11-28T03:06:10.974Z,22.30
2022-11-28T03:09:37.478Z,22.30
2022-11-28T03:13:03.260Z,21.77
2022-11-28T03:16:29.021Z,22.38
2022-11-28T03:19:42.935Z,23.70
2022-11-28T03:23:22.113Z,24.08
2022-11-28T03:26:48.361Z,24.98
2022-11-28T03:30:30.050Z,25.10
2022-11-28T03:33:50.858Z,24.35
2022-11-28T03:37:00.508Z,25.38
2022-11-28T03:40:08.899Z,24.42
2022-11-28T03:43:17.672Z,25.58
2022-11-28T03:46:23.881Z,25.00
2022-11-28T03:49:42.115Z,25.05
2022-11-28T03:53:04.139Z,25.05
2022-11-28T03:56:17.507Z,24.08
2022-11-28T03:59:43.858Z,23.55
2022-11-28T04:03:27.088Z,25.00
2022-11-28T04:06:51.006Z,23.30
2022-11-28T04:10:15.977Z,24.60
2022-11-28T04:13:49.041Z,23.67
2022-11-28T04:17:06.053Z,24.42
2022-11-28T04:23:47.099Z,24.67
2022-11-28T04:27:07.278Z,26.45
2022-11-28T04:30:11.164Z,25.92
2022-11-28T04:33:17.495Z,25.52
2022-11-28T04:36:24.106Z,25.23
2022-11-28T04:39:29.408Z,27.53
2022-11-28T04:42:40.003Z,25.40
2022-11-28T04:45:51.362Z,26.17
2022-11-28T04:48:53.202Z,24.70
2022-11-28T04:52:22.647Z,24.95
2022-11-28T04:55:49.299Z,24.35
2022-11-28T04:58:51.294Z,26.02
2022-11-28T05:01:52.185Z,23.70
2022-11-28T05:04:55.893Z,24.50
2022-11-28T05:07:59.782Z,25.13
2022-11-28T05:11:00.955Z,24.25
2022-11-28T05:14:01.666Z,24.05
2022-11-28T05:17:02.439Z,24.67
2022-11-28T05:20:05.038Z,24.90
2022-11-28T05:23:06.707Z,24.02
2022-11-28T05:26:14.513Z,25.13
2022-11-28T05:29:15.786Z,25.83
2022-11-28T05:32:16.435Z,24.80
2022-11-28T05:35:17.280Z,25.77
2022-11-28T05:38:18.057Z,26.38
2022-11-28T05:41:32.634Z,24.20
2022-11-28T05:44:33.364Z,24.65
2022-11-28T05:47:34.612Z,26.15
2022-11-28T05:50:39.771Z,24.80
2022-11-28T05:53:41.011Z,29.92
2022-11-28T05:56:42.593Z,25.80
2022-11-28T05:59:44.014Z,24.60
2022-11-28T06:02:45.080Z,26.08
2022-11-28T06:05:46.152Z,26.50
2022-11-28T06:08:49.590Z,24.83
2022-11-28T06:11:50.294Z,24.42
2022-11-28T06:14:51.566Z,28.85
2022-11-28T06:17:52.268Z,33.50
2022-11-28T06:20:53.084Z,25.40
2022-11-28T06:23:54.420Z,36.30
2022-11-28T06:26:55.423Z,34.67
2022-11-28T06:29:56.425Z,27.10
2022-11-28T06:32:57.555Z,24.83
2022-11-28T06:36:04.253Z,23.88
2022-11-28T06:39:06.299Z,24.63
2022-11-28T06:42:07.268Z,27.17
2022-11-28T06:45:09.398Z,27.05
2022-11-28T06:48:10.224Z,22.15
2022-11-28T06:51:13.263Z,25.27
2022-11-28T06:54:14.371Z,25.35
2022-11-28T06:57:15.348Z,26.30
2022-11-28T07:00:17.547Z,25.27
2022-11-28T07:03:18.582Z,27.08
2022-11-28T07:06:20.570Z,29.30
2022-11-28T07:09:21.811Z,29.30
2022-11-28T07:12:22.642Z,27.45
2022-11-28T07:15:24.311Z,26.05
2022-11-28T07:18:25.473Z,27.23
2022-11-28T07:21:28.376Z,26.40
2022-11-28T07:24:30.314Z,26.88
2022-11-28T07:27:31.515Z,27.70
2022-11-28T07:30:32.500Z,29.90
2022-11-28T07:33:35.464Z,30.23
2022-11-28T07:36:37.408Z,30.35
2022-11-28T07:39:39.172Z,29.30
2022-11-28T07:42:40.152Z,29.67
2022-11-28T07:46:00.127Z,30.25
2022-11-28T07:49:02.351Z,29.83
2022-11-28T07:52:03.930Z,29.05
2022-11-28T07:55:05.887Z,30.33
2022-11-28T07:58:06.969Z,29.48
2022-11-28T08:01:23.387Z,31.55
2022-11-28T08:04:24.458Z,33.28
2022-11-28T08:07:25.979Z,29.90
2022-11-28T08:10:27.163Z,28.70
2022-11-28T08:13:28.854Z,31.08
2022-11-28T08:16:30.515Z,31.52
2022-11-28T08:19:34.986Z,31.42
2022-11-28T08:22:36.157Z,29.45
2022-11-28T08:25:37.370Z,29.67
2022-11-28T08:28:38.367Z,29.40
2022-11-28T08:31:40.801Z,29.08
2022-11-28T08:34:41.889Z,32.08
2022-11-28T08:37:42.726Z,28.90
2022-11-28T08:40:43.574Z,28.48
2022-11-28T08:43:45.557Z,28.15
2022-11-28T08:46:46.587Z,30.55
2022-11-28T08:49:47.970Z,30.05
2022-11-28T08:52:48.997Z,29.95
2022-11-28T08:55:50.511Z,27.25
2022-11-28T08:58:51.493Z,27.42
2022-11-28T09:01:55.634Z,25.02
2022-11-28T09:04:56.878Z,25.98
2022-11-28T09:07:58.544Z,23.70
2022-11-28T09:10:59.560Z,20.92
2022-11-28T09:14:00.763Z,22.63
2022-11-28T09:17:01.588Z,21.05
2022-11-28T09:20:04.526Z,20.65
2022-11-28T09:23:06.111Z,22.13
2022-11-28T09:26:20.353Z,21.88
2022-11-28T09:29:21.234Z,20.85
2022-11-28T09:32:22.107Z,21.08
2022-11-28T09:35:23.605Z,18.27
2022-11-28T09:38:27.678Z,19.50
2022-11-28T09:42:14.578Z,19.20
2022-11-28T09:48:51.277Z,18.60
2022-11-28T09:51:57.282Z,19.08
2022-11-28T09:55:38.942Z,19.13
2022-11-28T09:58:56.208Z,17.88
2022-11-28T10:02:23.700Z,18.70
2022-11-28T10:08:55.766Z,18.95
2022-11-28T10:12:24.086Z,19.05
2022-11-28T10:16:19.807Z,17.65
2022-11-28T10:19:57.746Z,18.13
2022-11-28T10:23:30.401Z,17.88
2022-11-28T10:26:38.352Z,18.77
2022-11-28T10:29:46.426Z,16.92
2022-11-28T10:33:04.954Z,18.08
2022-11-28T10:36:22.367Z,16.85
2022-11-28T10:39:26.569Z,17.27
2022-11-28T10:42:41.590Z,17.50
2022-11-28T10:46:03.889Z,16.00
2022-11-28T10:49:26.916Z,15.90
2022-11-28T10:52:44.283Z,16.30
2022-11-28T10:56:18.124Z,15.30
2022-11-28T11:00:18.434Z,15.60
2022-11-28T11:03:30.059Z,16.48
2022-11-28T11:06:41.390Z,15.82
2022-11-28T11:09:48.626Z,14.52
2022-11-28T11:12:53.392Z,14.88
2022-11-28T11:16:08.153Z,15.82
2022-11-28T11:19:37.765Z,15.05
2022-11-28T11:22:38.874Z,14.55
2022-11-28T11:25:58.447Z,16.23
2022-11-28T11:29:00.103Z,14.77
2022-11-28T11:32:06.108Z,15.10
2022-11-28T11:35:17.154Z,16.73
2022-11-28T11:38:32.373Z,14.50
2022-11-28T11:41:36.357Z,15.70
2022-11-28T11:44:37.906Z,14.27
2022-11-28T11:47:44.934Z,14.70
2022-11-28T11:50:54.726Z,15.27
2022-11-28T11:54:26.554Z,15.07
2022-11-28T11:57:39.015Z,15.38
2022-11-28T12:00:42.371Z,13.25
2022-11-28T12:03:58.567Z,13.85
2022-11-28T12:07:06.492Z,13.52
2022-11-28T12:10:16.610Z,12.77
2022-11-28T12:13:22.322Z,12.38
2022-11-28T12:17:00.757Z,12.27
2022-11-28T12:20:32.001Z,12.70
2022-11-28T12:24:02.711Z,13.23
2022-11-28T12:27:34.132Z,12.45
2022-11-28T12:31:18.222Z,12.15
2022-11-28T12:34:45.367Z,12.90
2022-11-28T12:38:15.751Z,12.40
2022-11-28T12:41:45.855Z,13.50
2022-11-28T12:45:18.657Z,13.23
2022-11-28T12:48:41.339Z,14.55
2022-11-28T12:52:16.504Z,13.30
2022-11-28T12:55:20.099Z,13.32
2022-11-28T12:59:03.500Z,13.32
2022-11-28T13:02:42.023Z,14.45
2022-11-28T13:06:24.980Z,14.20
2022-11-28T13:09:38.680Z,14.40
2022-11-28T13:13:03.924Z,14.15
2022-11-28T13:16:27.396Z,14.98
2022-11-28T13:19:52.782Z,13.75
2022-11-28T13:23:04.226Z,14.32
2022-11-28T13:26:38.131Z,13.68
2022-11-28T13:30:13.516Z,13.27
2022-11-28T13:33:28.473Z,14.20
2022-11-28T13:40:33.947Z,13.88
2022-11-28T13:43:58.275Z,13.90
2022-11-28T13:47:27.828Z,13.50
2022-11-28T13:50:28.833Z,12.73
2022-11-28T13:53:30.235Z,13.95
2022-11-28T13:56:31.976Z,13.07
2022-11-28T13:59:35.520Z,13.63
2022-11-28T14:02:52.660Z,13.10
2022-11-28T14:09:09.308Z,13.20
2022-11-28T14:12:51.487Z,12.98
2022-11-28T14:16:17.818Z,12.40
2022-11-28T14:19:58.160Z,12.77
2022-11-28T14:23:50.161Z,13.57
2022-11-28T14:27:01.052Z,13.45
2022-11-28T14:30:04.029Z,14.00
2022-11-28T14:33:33.240Z,13.88
2022-11-28T14:36:41.999Z,13.80
2022-11-28T14:39:43.195Z,14.35
2022-11-28T14:43:00.279Z,15.15
2022-11-28T14:46:31.756Z,15.63
2022-11-28T14:49:33.174Z,15.48
2022-11-28T14:52:40.272Z,14.63
2022-11-28T14:55:42.975Z,15.32
2022-11-28T14:58:55.560Z,15.95
2022-11-28T15:02:12.670Z,16.10
2022-11-28T15:05:27.886Z,15.55
2022-11-28T15:08:59.043Z,15.98
2022-11-28T15:12:41.619Z,16.95
2022-11-28T15:15:51.217Z,17.33
2022-11-28T15:19:07.539Z,16.55
2022-11-28T15:22:29.410Z,17.38
2022-11-28T15:25:40.116Z,18.63
2022-11-28T15:28:43.412Z,17.00
2022-11-28T15:31:48.506Z,17.45
2022-11-28T15:35:09.235Z,16.13
2022-11-28T15:38:15.415Z,15.85
2022-11-28T15:41:24.082Z,16.13
2022-11-28T15:44:25.275Z,16.02
2022-11-28T15:47:28.727Z,16.50
2022-11-28T15:50:33.554Z,15.73
2022-11-28T15:53:42.513Z,16.05
2022-11-28T15:56:57.523Z,16.67
2022-11-28T15:59:58.974Z,16.27
2022-11-28T16:03:01.290Z,16.58
2022-11-28T16:06:05.954Z,16.92
2022-11-28T16:09:31.190Z,17.70
2022-11-28T16:12:32.987Z,18.00
2022-11-28T16:15:33.959Z,19.42
2022-11-28T16:18:35.022Z,19.90
2022-11-28T16:21:57.124Z,18.20
2022-11-28T16:25:11.875Z,19.88
2022-11-28T16:28:37.355Z,23.52
2022-11-28T16:31:38.773Z,21.95
2022-11-28T16:34:53.519Z,20.15
2022-11-28T16:38:06.363Z,17.73
2022-11-28T16:41:22.558Z,19.00
2022-11-28T16:44:25.252Z,17.80
2022-11-28T16:47:33.235Z,18.83
2022-11-28T16:50:35.272Z,18.55
2022-11-28T16:53:52.162Z,17.63
2022-11-28T16:57:10.947Z,17.03
2022-11-28T17:00:12.845Z,17.17
2022-11-28T17:03:49.547Z,18.05
2022-11-28T17:06:53.871Z,17.38
2022-11-28T17:09:54.863Z,16.98
2022-11-28T17:12:55.942Z,16.55
2022-11-28T17:15:56.907Z,17.13
2022-11-28T17:18:57.911Z,17.08
2022-11-28T17:22:00.278Z,18.02
2022-11-28T17:25:03.960Z,19.48
2022-11-28T17:28:05.531Z,21.15
2022-11-28T17:31:06.975Z,24.15
2022-11-28T17:34:22.705Z,20.92
2022-11-28T17:37:23.647Z,21.02
2022-11-28T17:40:33.552Z,18.13
2022-11-28T17:43:38.878Z,20.20
2022-11-28T17:46:40.316Z,17.58
2022-11-28T17:49:46.246Z,18.38
2022-11-28T17:52:47.936Z,18.52
2022-11-28T17:55:59.063Z,17.17
2022-11-28T17:59:01.486Z,17.27
2022-11-28T18:02:02.492Z,17.05
2022-11-28T18:05:04.448Z,18.25
2022-11-28T18:08:06.009Z,18.73
2022-11-28T18:11:12.043Z,16.80
2022-11-28T18:14:13.774Z,17.98
2022-11-28T18:17:14.791Z,16.05
2022-11-28T18:20:16.190Z,19.30
2022-11-28T18:23:16.937Z,18.83
2022-11-28T18:26:23.863Z,18.17
2022-11-28T18:29:25.707Z,17.90
2022-11-28T18:32:27.775Z,23.08
2022-11-28T18:35:29.140Z,20.20
2022-11-28T18:38:30.386Z,17.70
2022-11-28T18:41:31.920Z,16.75
2022-11-28T18:44:33.734Z,19.17
2022-11-28T18:47:36.319Z,18.30
2022-11-28T18:50:37.062Z,16.73
2022-11-28T18:53:39.040Z,17.70
2022-11-28T18:56:40.367Z,16.35
2022-11-28T18:59:45.588Z,16.23
2022-11-28T19:02:52.292Z,18.40
2022-11-28T19:05:53.425Z,18.70
2022-11-28T19:08:58.952Z,18.98
2022-11-28T19:12:00.503Z,18.27
2022-11-28T19:15:03.033Z,18.10
2022-11-28T19:18:04.027Z,17.13
2022-11-28T19:21:11.584Z,18.45
2022-11-28T19:24:13.463Z,16.90
2022-11-28T19:27:14.878Z,16.52
2022-11-28T19:30:17.188Z,18.13
2022-11-28T19:33:18.792Z,17.35
2022-11-28T19:36:19.678Z,17.48
2022-11-28T19:39:25.108Z,16.92
2022-11-28T19:42:26.693Z,16.55
2022-11-28T19:45:28.002Z,16.33
2022-11-28T19:48:31.483Z,17.20
2022-11-28T19:51:33.273Z,17.40
2022-11-28T19:54:34.905Z,17.02
2022-11-28T19:57:38.280Z,17.20
2022-11-28T20:00:40.564Z,17.83
2022-11-28T20:03:47.800Z,17.10
2022-11-28T20:06:49.399Z,16.90
2022-11-28T20:09:50.442Z,14.88
2022-11-28T20:12:51.584Z,17.23
2022-11-28T20:15:52.856Z,15.77
2022-11-28T20:18:54.106Z,15.25
2022-11-28T20:21:59.011Z,15.57
2022-11-28T20:25:00.310Z,15.13
2022-11-28T20:28:01.571Z,15.82
2022-11-28T20:31:03.348Z,14.77
2022-11-28T20:34:06.666Z,15.40
2022-11-28T20:37:07.823Z,15.52
2022-11-28T20:40:09.912Z,14.82
2022-11-28T20:43:10.830Z,14.63
2022-11-28T20:46:15.132Z,14.32
2022-11-28T20:49:16.325Z,14.18
2022-11-28T20:52:17.222Z,14.27
2022-11-28T20:55:18.477Z,13.02
2022-11-28T20:58:19.128Z,13.30
2022-11-28T21:01:28.424Z,13.77
2022-11-28T21:04:29.439Z,12.68
2022-11-28T21:07:31.190Z,13.48
2022-11-28T21:10:33.914Z,12.68
2022-11-28T21:13:35.604Z,13.45
2022-11-28T21:16:36.881Z,12.70
2022-11-28T21:19:38.059Z,12.70
2022-11-28T21:22:38.912Z,12.25
2022-11-28T21:25:42.498Z,12.85
2022-11-28T21:28:46.810Z,12.77
2022-11-28T21:31:47.516Z,13.45
2022-11-28T21:34:48.761Z,12.95
2022-11-28T21:37:49.888Z,13.00
2022-11-28T21:40:54.394Z,14.05
2022-11-28T21:43:56.169Z,13.70
2022-11-28T21:46:56.919Z,13.82
2022-11-28T21:49:57.675Z,14.50
2022-11-28T21:52:58.374Z,14.73
2022-11-28T21:56:01.347Z,15.15
2022-11-28T21:59:02.411Z,13.73
2022-11-28T22:02:07.175Z,14.20
2022-11-28T22:05:10.782Z,13.95
2022-11-28T22:08:11.646Z,13.90
2022-11-28T22:11:13.523Z,14.02
2022-11-28T22:14:14.514Z,14.15
2022-11-28T22:17:15.384Z,14.98
2022-11-28T22:20:16.560Z,14.23
2022-11-28T22:23:18.878Z,15.13
2022-11-28T22:26:20.618Z,14.82
2022-11-28T22:29:21.734Z,15.00
2022-11-28T22:32:23.116Z,14.50
2022-11-28T22:35:24.345Z,15.32
2022-11-28T22:38:25.502Z,14.77
2022-11-28T22:41:29.281Z,14.95
2022-11-28T22:44:32.686Z,14.50
2022-11-28T22:47:33.992Z,13.02
2022-11-28T22:50:40.269Z,14.32
2022-11-28T22:53:42.135Z,13.88
2022-11-28T22:56:43.342Z,13.75
2022-11-28T22:59:44.551Z,13.48
2022-11-28T23:02:45.812Z,12.23
2022-11-28T23:05:49.336Z,12.13
2022-11-28T23:08:52.188Z,13.05
2022-11-28T23:11:53.408Z,12.18
2022-11-28T23:14:54.226Z,13.00
2022-11-28T23:17:55.364Z,12.30
2022-11-28T23:20:56.554Z,11.32
2022-11-28T23:23:58.038Z,12.20
2022-11-28T23:27:00.069Z,12.52
2022-11-28T23:30:01.286Z,12.95
2022-11-28T23:33:02.494Z,13.05
2022-11-28T23:36:17.542Z,11.98
2022-11-28T23:39:23.077Z,13.25
2022-11-28T23:42:24.036Z,10.63
2022-11-28T23:45:24.831Z,10.73
2022-11-28T23:48:26.213Z,10.88
2022-11-28T23:51:27.463Z,10.57
2022-11-28T23:54:28.447Z,11.02
2022-11-28T23:57:29.423Z,10.43
